METAR Data
IDs: Format: Raw Decoded Include TAF

Data at: 0027 UTC 26 Oct 2021

PATK 252353Z 04004KT 10SM CLR 06/M02 A2905 RMK AO2 SLP840 T00611022 10061 21039 56004
PATK 252253Z 03004KT 10SM CLR 06/M02 A2905 RMK AO2 SLP840 T00561022
PATK 252153Z 35003KT 10SM CLR 05/M02 A2906 RMK AO2 SLP843 T00501017
PATK 252053Z 00000KT 10SM CLR 03/M01 A2906 RMK AO2 SLP846 T00281011 58007
PATK 251953Z 00000KT 10SM FEW120 01/M02 A2907 RMK AO2 SLP849 T00061017
PATK 251853Z 07003KT 10SM CLR M02/M03 A2908 RMK AO2 SLP853 T10171033
PATK 251753Z 03003KT 10SM CLR M03/M05 A2908 RMK AO2 SLP854 I1000 I6000 T10331050 11011 21033 56010
PATK 251653Z 01003KT 10SM BKN120 M03/M05 A2909 RMK AO2 SLP857 T10331050
PATK 251553Z 00000KT 10SM CLR M02/M04 A2909 RMK AO2 SLP857 T10221039
PATK 251453Z AUTO 06003KT 10SM FEW120 M02/M03 A2911 RMK AO2 SLP864 I1000 I3000 T10221033 57019 TSNO
PATK 251353Z AUTO 06003KT 10SM CLR M03/M04 A2913 RMK AO2 SLP870 I1000 T10281039 TSNO
PATK 251253Z AUTO 04003KT 10SM CLR M03/M04 A2915 RMK AO2 SLP877 I1000 T10281039 TSNO
PATK 251153Z AUTO 00000KT 10SM CLR M01/M02 A2917 RMK AO2 SLP883 70011 I1000 I6001 T10111022 10006 21011 56017 TSNO
PATK 251053Z AUTO 36004KT 10SM CLR 00/M02 A2919 RMK AO2 SLP888 I1000 T00001017 TSNO
PATK 250953Z AUTO 34003KT 10SM CLR 00/M01 A2920 RMK AO2 SLP894 I1000 T00001011 TSNO
PATK 250853Z AUTO 05003KT 10SM CLR M01/M02 A2922 RMK AO2 SLP900 I1000 I3001 T10061017 400561011 56018 TSNO
PATK 250753Z AUTO 35003KT 10SM CLR M01/M02 A2924 RMK AO2 SLP905 T10061017 TSNO
PATK 250710Z AUTO 00000KT 10SM FEW001 M01/M02 A2925 RMK AO2 T10111022 TSNO
PATK 250701Z AUTO 00000KT 2SM BR SCT001 M01/M02 A2925 RMK AO2 T10111022 TSNO
PATK 250653Z AUTO 00000KT 1SM BR VV001 M01/M02 A2925 RMK AO2 SLP911 I1001 T10111022 TSNO
PATK 250644Z AUTO 00000KT 1 1/4SM BR SCT001 M01/M02 A2926 RMK AO2 I1001 T10111022 TSNO
PATK 250637Z AUTO 00000KT 3/4SM BR VV001 M01/M02 A2926 RMK AO2 I1000 T10061017 TSNO
PATK 250626Z AUTO 00000KT 1 1/2SM BR BKN001 M01/M02 A2926 RMK AO2 I1000 T10061017 TSNO
PATK 250603Z AUTO 00000KT 3/4SM BR VV001 M01/M02 A2927 RMK AO2 T10061022 TSNO
PATK 250558Z AUTO 00000KT 1 3/4SM BR SCT001 M01/M02 A2927 RMK AO2 T10061022 TSNO
PATK 250553Z AUTO 00000KT 5SM BR SCT001 M01/M02 A2927 RMK AO2 SLP918 I1001 I6001 T10061017 10056 21006 58013 TSNO
PATK 250538Z AUTO 00000KT 3SM BR FEW001 M01/M01 A2928 RMK AO2 I1000 T10061011 TSNO
PATK 250502Z AUTO 00000KT 1 3/4SM BR FEW001 BKN050 00/M01 A2929 RMK AO2 I1000 T00001011 TSNO
PATK 250453Z AUTO 00000KT 4SM BR FEW001 SCT050 00/M01 A2930 RMK AO2 SLP927 T00001006 TSNO
PATK 250414Z AUTO 00000KT 1 1/2SM BR FEW001 01/00 A2931 RMK AO2 T00060000 TSNO
PATK 250407Z AUTO 00000KT 1 3/4SM BR CLR 01/01 A2931 RMK AO2 VIS 1V4 T00110006 TSNO
PATK 250403Z AUTO 00000KT 3SM BR CLR 02/01 A2931 RMK AO2 T00170006 TSNO
PATK 250353Z AUTO 04003KT 1 1/2SM BR CLR 02/01 A2931 RMK AO2 SLP931 T00170006 TSNO
PATK 250351Z AUTO 05003KT 1 3/4SM BR CLR 02/01 A2931 RMK AO2 TSNO
PATK 250253Z AUTO 00000KT 10SM BKN060 BKN075 04/03 A2933 RMK AO2 SLP935 T00390028 56017 TSNO
PATK 250153Z AUTO 00000KT 10SM OVC060 05/03 A2934 RMK AO2 SLP941 T00500033 TSNO
PATK 250053Z 01003KT 10SM BKN060 OVC070 06/03 A2936 RMK AO2 SLP946 T00560033
PATK 242353Z 03004KT 10SM OVC050 05/03 A2938 RMK AO2 RAE43 SLP952 P0001 60007 T00500033 10050 20017 58014
PATK 242253Z 04003KT 10SM -RA BKN049 OVC065 05/03 A2940 RMK AO2 SLP958 P0001 T00500033
PATK 242153Z 00000KT 7SM -RA BKN037 BKN047 OVC055 04/03 A2941 RMK AO2 SLP964 P0002 T00440033
PATK 242053Z 00000KT 8SM -RA BKN031 OVC040 04/02 A2942 RMK AO2 SLP967 P0001 60003 T00390022 58001
PATK 241953Z 00000KT 10SM -RA BKN035 OVC045 03/02 A2942 RMK AO2 SLP968 P0001 T00280017
PATK 241853Z 00000KT 8SM -RA BKN047 OVC060 02/01 A2943 RMK AO2 SLP969 P0001 T00220011
PATK 241753Z 00000KT 10SM -RA OVC040 02/01 A2942 RMK AO2 SLP968 P0001 60004 T00170006 10028 20017 50005
PATK 241653Z 00000KT 10SM -RA OVC041 02/01 A2942 RMK AO2 SLP969 P0001 T00170006
PATK 241553Z AUTO 00000KT 10SM -RA SCT035 OVC043 02/01 A2942 RMK AO2 SLP967 P0000 T00170006 TSNO
PATK 241453Z AUTO 00000KT 10SM -RA OVC034 02/00 A2941 RMK AO2 SLP963 P0002 60002 T00170000 53013 TSNO
PATK 241353Z AUTO 00000KT 10SM -RA OVC039 02/00 A2940 RMK AO2 RAB1258 SLP959 P0000 T00170000 TSNO
PATK 241253Z AUTO 05003KT 10SM OVC065 02/M01 A2938 RMK AO2 SLP954 T00221011 TSNO